createdAt,value
2018-12-25T00:00:42.619Z,84.31
2018-12-25T00:01:42.606Z,83.97
2018-12-25T00:02:42.591Z,84.00
2018-12-25T00:03:42.576Z,83.69
2018-12-25T00:04:42.565Z,84.11
2018-12-25T00:05:42.704Z,84.11
2018-12-25T00:06:42.618Z,84.63
2018-12-25T00:07:42.538Z,84.11
2018-12-25T00:08:42.541Z,84.42
2018-12-25T00:09:42.516Z,84.21
2018-12-25T00:10:42.501Z,84.31
2018-12-25T00:11:42.903Z,84.63
2018-12-25T00:12:42.485Z,84.63
2018-12-25T00:13:42.473Z,84.63
2018-12-25T00:14:42.463Z,84.73
2018-12-25T00:15:42.521Z,84.73
2018-12-25T00:16:42.438Z,84.63
2018-12-25T00:17:42.648Z,84.42
2018-12-25T00:18:42.431Z,84.63
2018-12-25T00:19:42.400Z,84.31
2018-12-25T00:20:42.394Z,84.31
2018-12-25T00:21:42.381Z,84.94
2018-12-25T00:23:03.666Z,85.14
2018-12-25T00:23:42.362Z,85.04
2018-12-25T00:24:42.351Z,85.04
2018-12-25T00:25:42.340Z,84.52
2018-12-25T00:26:42.335Z,85.14
2018-12-25T00:27:42.317Z,84.69
2018-12-25T00:28:42.589Z,84.59
2018-12-25T00:29:42.296Z,84.80
2018-12-25T00:30:42.378Z,84.59
2018-12-25T00:31:42.283Z,84.48
2018-12-25T00:32:42.272Z,84.73
2018-12-25T00:33:42.254Z,84.38
2018-12-25T00:34:42.419Z,84.63
2018-12-25T00:35:42.235Z,84.38
2018-12-25T00:36:42.219Z,84.73
2018-12-25T00:37:42.211Z,84.31
2018-12-25T00:38:42.205Z,84.38
2018-12-25T00:39:42.190Z,84.07
2018-12-25T00:40:42.419Z,84.07
2018-12-25T00:41:42.181Z,84.07
2018-12-25T00:42:42.158Z,84.17
2018-12-25T00:43:42.156Z,84.59
2018-12-25T00:44:42.134Z,84.69
2018-12-25T00:45:42.232Z,84.52
2018-12-25T00:46:42.399Z,85.21
2018-12-25T00:47:42.134Z,85.11
2018-12-25T00:48:42.089Z,84.69
2018-12-25T00:49:42.077Z,84.17
2018-12-25T00:50:42.068Z,84.52
2018-12-25T00:51:42.059Z,84.59
2018-12-25T00:52:42.194Z,84.90
2018-12-25T00:53:42.035Z,85.00
2018-12-25T00:54:43.238Z,84.63
2018-12-25T00:55:42.013Z,85.35
2018-12-25T00:56:42.001Z,85.11
2018-12-25T00:57:42.003Z,85.11
2018-12-25T00:58:44.557Z,85.42
2018-12-25T00:59:41.970Z,85.25
2018-12-25T01:00:42.021Z,85.04
2018-12-25T01:01:42.243Z,84.90
2018-12-25T01:02:41.938Z,84.69
2018-12-25T01:03:41.924Z,84.90
2018-12-25T01:04:42.217Z,85.00
2018-12-25T01:05:41.903Z,84.83
2018-12-25T01:06:41.896Z,84.90
2018-12-25T01:07:41.901Z,84.80
2018-12-25T01:08:41.874Z,85.73
2018-12-25T01:09:43.797Z,84.69
2018-12-25T01:10:42.000Z,85.00
2018-12-25T01:11:41.844Z,84.80
2018-12-25T01:12:41.829Z,84.80
2018-12-25T01:13:41.824Z,84.90
2018-12-25T01:14:41.810Z,85.04
2018-12-25T01:15:41.800Z,84.80
2018-12-25T01:16:42.088Z,84.90
2018-12-25T01:17:41.839Z,85.63
2018-12-25T01:18:41.771Z,85.42
2018-12-25T01:19:43.206Z,85.21
2018-12-25T01:20:41.744Z,85.63
2018-12-25T01:21:41.732Z,85.42
2018-12-25T01:22:42.038Z,85.94
2018-12-25T01:23:41.713Z,85.21
2018-12-25T01:24:41.702Z,86.35
2018-12-25T01:25:41.691Z,86.45
2018-12-25T01:26:41.689Z,86.45
2018-12-25T01:27:41.675Z,86.87
2018-12-25T01:28:41.976Z,86.76
2018-12-25T01:29:41.645Z,86.87
2018-12-25T01:30:41.794Z,86.55
2018-12-25T01:31:41.624Z,86.55
2018-12-25T01:32:41.612Z,86.97
2018-12-25T01:33:41.604Z,87.45
2018-12-25T01:34:42.021Z,87.28
2018-12-25T01:35:41.594Z,87.28
2018-12-25T01:36:41.571Z,87.28
2018-12-25T01:37:41.560Z,87.18
2018-12-25T01:38:41.548Z,87.18
2018-12-25T01:39:41.539Z,87.07
2018-12-25T01:40:42.848Z,87.18
2018-12-25T01:41:41.516Z,87.49
2018-12-25T01:42:41.508Z,87.55
2018-12-25T01:43:41.496Z,87.76
2018-12-25T01:44:41.487Z,87.59
2018-12-25T01:45:41.476Z,88.18
2018-12-25T01:46:41.758Z,88.11
2018-12-25T01:47:41.508Z,88.01
2018-12-25T01:48:41.514Z,88.63
2018-12-25T01:49:41.573Z,87.70
2018-12-25T01:50:41.484Z,88.11
2018-12-25T01:51:41.637Z,88.94
2018-12-25T01:52:41.612Z,88.84
2018-12-25T01:53:41.699Z,88.69
2018-12-25T01:54:41.372Z,88.18
2018-12-25T01:55:41.371Z,88.39
2018-12-25T01:56:41.371Z,87.90
2018-12-25T01:57:41.344Z,88.53
2018-12-25T01:58:41.602Z,88.79
2018-12-25T01:59:41.341Z,88.28
2018-12-25T02:00:41.312Z,88.42
2018-12-25T02:01:41.846Z,88.53
2018-12-25T02:02:41.347Z,88.53
2018-12-25T02:03:41.335Z,88.53
2018-12-25T02:04:41.546Z,88.32
2018-12-25T02:05:41.317Z,88.53
2018-12-25T02:06:41.365Z,88.07
2018-12-25T02:07:41.231Z,88.32
2018-12-25T02:08:41.543Z,88.07
2018-12-25T02:09:41.212Z,88.53
2018-12-25T02:10:42.017Z,88.59
2018-12-25T02:11:41.194Z,88.53
2018-12-25T02:12:41.177Z,88.73
2018-12-25T02:13:41.169Z,88.73
2018-12-25T02:14:41.152Z,88.53
2018-12-25T02:15:41.150Z,88.63
2018-12-25T02:16:41.772Z,88.39
2018-12-25T02:17:41.129Z,88.28
2018-12-25T02:18:41.116Z,88.84
2018-12-25T02:19:41.106Z,88.42
2018-12-25T02:20:41.091Z,88.84
2018-12-25T02:21:41.616Z,88.63
2018-12-25T02:22:42.918Z,88.84
2018-12-25T02:23:41.157Z,89.00
2018-12-25T02:24:41.050Z,88.73
2018-12-25T02:25:41.036Z,88.69
2018-12-25T02:26:41.029Z,88.73
2018-12-25T02:27:41.146Z,88.39
2018-12-25T02:28:41.160Z,88.69
2018-12-25T02:29:41.002Z,88.18
2018-12-25T02:30:41.022Z,88.11
2018-12-25T02:31:40.974Z,88.07
2018-12-25T02:32:40.974Z,88.69
2018-12-25T02:33:40.952Z,88.79
2018-12-25T02:34:41.088Z,88.59
2018-12-25T02:35:40.935Z,88.48
2018-12-25T02:36:40.917Z,88.79
2018-12-25T02:37:40.916Z,89.00
2018-12-25T02:38:41.007Z,89.11
2018-12-25T02:39:40.889Z,89.11
2018-12-25T02:40:41.137Z,89.00
2018-12-25T02:41:40.859Z,88.69
2018-12-25T02:42:40.851Z,89.00
2018-12-25T02:43:40.842Z,88.90
2018-12-25T02:44:40.918Z,89.11
2018-12-25T02:45:40.820Z,89.00
2018-12-25T02:46:42.354Z,89.00
2018-12-25T02:47:40.797Z,88.90
2018-12-25T02:48:40.787Z,89.11
2018-12-25T02:49:50.060Z,89.07
2018-12-25T02:50:41.763Z,88.69
2018-12-25T02:51:40.753Z,88.69
2018-12-25T02:52:40.870Z,88.79
2018-12-25T02:53:56.006Z,88.59
2018-12-25T02:54:40.722Z,88.90
2018-12-25T02:55:40.710Z,88.69
2018-12-25T02:56:40.699Z,88.79
2018-12-25T02:57:40.805Z,88.76
2018-12-25T02:58:40.874Z,89.00
2018-12-25T02:59:40.682Z,88.65
2018-12-25T03:00:40.654Z,88.79
2018-12-25T03:01:40.679Z,88.86
2018-12-25T03:02:40.648Z,88.79
2018-12-25T03:03:40.620Z,88.86
2018-12-25T03:04:40.886Z,88.86
2018-12-25T03:05:40.603Z,88.55
2018-12-25T03:06:40.589Z,88.59
2018-12-25T03:07:40.577Z,88.96
2018-12-25T03:08:40.566Z,88.86
2018-12-25T03:09:40.558Z,88.79
2018-12-25T03:10:40.673Z,89.07
2018-12-25T03:11:40.540Z,89.52
2018-12-25T03:12:40.521Z,89.48
2018-12-25T03:13:40.514Z,89.69
2018-12-25T03:14:40.613Z,90.00
2018-12-25T03:15:40.495Z,90.10
2018-12-25T03:16:40.901Z,90.20
2018-12-25T03:17:40.475Z,90.04
2018-12-25T03:18:40.606Z,90.00
2018-12-25T03:19:40.445Z,89.79
2018-12-25T03:20:40.441Z,89.62
2018-12-25T03:21:40.422Z,90.04
2018-12-25T03:22:40.635Z,89.17
2018-12-25T03:23:40.400Z,89.52
2018-12-25T03:24:40.387Z,89.48
2018-12-25T03:25:40.519Z,89.38
2018-12-25T03:26:40.367Z,89.31
2018-12-25T03:27:40.359Z,89.38
2018-12-25T03:28:40.499Z,89.58
2018-12-25T03:29:40.360Z,89.73
2018-12-25T03:30:40.326Z,89.58
2018-12-25T03:31:40.315Z,89.58
2018-12-25T03:32:40.304Z,89.17
2018-12-25T03:33:40.323Z,89.62
2018-12-25T03:35:01.670Z,89.83
2018-12-25T03:35:40.283Z,90.14
2018-12-25T03:36:40.257Z,90.00
2018-12-25T03:37:40.244Z,90.04
2018-12-25T03:38:40.260Z,90.10
2018-12-25T03:39:40.223Z,89.21
2018-12-25T03:40:40.497Z,89.17
2018-12-25T03:41:40.199Z,89.48
2018-12-25T03:42:40.200Z,89.38
2018-12-25T03:43:40.185Z,89.28
2018-12-25T03:44:40.176Z,89.48
2018-12-25T03:45:40.157Z,89.48
2018-12-25T03:46:40.480Z,89.58
2018-12-25T03:47:40.139Z,89.28
2018-12-25T03:48:40.124Z,89.38
2018-12-25T03:49:40.114Z,89.38
2018-12-25T03:50:40.115Z,89.17
2018-12-25T03:51:40.098Z,89.07
2018-12-25T03:52:40.442Z,89.38
2018-12-25T03:53:40.069Z,89.28
2018-12-25T03:54:40.061Z,89.28
2018-12-25T03:55:40.051Z,89.07
2018-12-25T03:56:40.045Z,88.86
2018-12-25T03:57:40.023Z,88.76
2018-12-25T03:58:40.138Z,88.45
2018-12-25T03:59:40.001Z,88.86
2018-12-25T04:00:40.003Z,88.65
2018-12-25T04:01:40.006Z,88.96
2018-12-25T04:02:39.967Z,88.55
2018-12-25T04:03:40.045Z,88.13
2018-12-25T04:04:40.714Z,88.03
2018-12-25T04:05:39.993Z,88.45
2018-12-25T04:06:39.924Z,88.86
2018-12-25T04:07:42.524Z,88.76
2018-12-25T04:08:39.904Z,88.76
2018-12-25T04:09:39.901Z,88.76
2018-12-25T04:10:40.009Z,88.76
2018-12-25T04:11:39.873Z,88.61
2018-12-25T04:12:39.858Z,88.76
2018-12-25T04:13:39.858Z,88.82
2018-12-25T04:14:39.846Z,88.71
2018-12-25T04:15:39.826Z,88.92
2018-12-25T04:16:40.006Z,88.30
2018-12-25T04:17:39.802Z,88.30
2018-12-25T04:18:39.827Z,88.30
2018-12-25T04:19:39.781Z,88.20
2018-12-25T04:20:39.845Z,88.30
2018-12-25T04:21:39.759Z,88.51
2018-12-25T04:22:40.234Z,88.61
2018-12-25T04:23:39.740Z,88.61
2018-12-25T04:24:39.725Z,88.71
2018-12-25T04:25:39.714Z,88.51
2018-12-25T04:26:39.703Z,88.09
2018-12-25T04:27:39.693Z,87.68
2018-12-25T04:28:39.949Z,87.68
2018-12-25T04:29:39.701Z,87.37
2018-12-25T04:30:39.660Z,86.96
2018-12-25T04:31:39.687Z,87.06
2018-12-25T04:32:39.637Z,87.47
2018-12-25T04:33:39.680Z,87.57
2018-12-25T04:34:39.924Z,86.96
2018-12-25T04:35:39.666Z,87.68
2018-12-25T04:36:39.591Z,87.27
2018-12-25T04:37:39.709Z,87.27
2018-12-25T04:38:39.574Z,87.06
2018-12-25T04:39:39.597Z,87.27
2018-12-25T04:40:39.712Z,86.96
2018-12-25T04:41:39.537Z,87.47
2018-12-25T04:42:39.526Z,87.16
2018-12-25T04:43:39.516Z,87.16
2018-12-25T04:44:39.505Z,87.27
2018-12-25T04:45:39.492Z,87.06
2018-12-25T04:46:39.639Z,87.27
2018-12-25T04:47:39.746Z,87.47
2018-12-25T04:48:40.019Z,87.57
2018-12-25T04:49:39.827Z,87.57
2018-12-25T04:50:39.443Z,87.47
2018-12-25T04:51:39.697Z,87.16
2018-12-25T04:52:39.865Z,86.96
2018-12-25T04:53:39.428Z,87.06
2018-12-25T04:54:39.653Z,87.06
2018-12-25T04:55:39.417Z,87.37
2018-12-25T04:56:39.681Z,87.47
2018-12-25T04:57:39.431Z,87.06
2018-12-25T04:58:40.403Z,86.96
2018-12-25T04:59:39.409Z,87.27
2018-12-25T05:00:39.411Z,87.27
2018-12-25T05:01:39.607Z,87.27
2018-12-25T05:02:40.160Z,86.96
2018-12-25T05:03:39.300Z,87.27
2018-12-25T05:04:39.469Z,86.75
2018-12-25T05:05:39.273Z,86.65
2018-12-25T05:06:39.260Z,86.96
2018-12-25T05:07:39.285Z,86.65
2018-12-25T05:08:39.238Z,86.65
2018-12-25T05:09:39.387Z,86.44
2018-12-25T05:10:39.689Z,86.54
2018-12-25T05:11:39.212Z,86.54
2018-12-25T05:12:39.205Z,86.02
2018-12-25T05:13:39.191Z,86.75
2018-12-25T05:14:39.178Z,86.75
2018-12-25T05:15:39.159Z,86.75
2018-12-25T05:16:39.566Z,86.23
2018-12-25T05:17:39.195Z,86.33
2018-12-25T05:18:55.421Z,86.23
2018-12-25T05:19:39.509Z,85.50
2018-12-25T05:20:39.450Z,85.30
2018-12-25T05:21:39.426Z,86.13
2018-12-25T05:22:40.569Z,85.40
2018-12-25T05:23:39.152Z,85.40
2018-12-25T05:24:39.086Z,85.71
2018-12-25T05:25:39.084Z,85.71
2018-12-25T05:26:39.160Z,85.30
2018-12-25T05:27:39.039Z,84.68
2018-12-25T05:28:39.625Z,84.78
2018-12-25T05:29:39.009Z,85.30
2018-12-25T05:30:39.001Z,85.50
2018-12-25T05:31:38.983Z,85.50
2018-12-25T05:32:38.977Z,85.61
2018-12-25T05:33:38.968Z,85.03
2018-12-25T05:34:39.107Z,84.72
2018-12-25T05:35:38.937Z,85.03
2018-12-25T05:36:38.946Z,85.13
2018-12-25T05:37:38.915Z,85.13
2018-12-25T05:38:38.905Z,84.30
2018-12-25T05:39:40.658Z,84.30
2018-12-25T05:40:38.997Z,85.24
2018-12-25T05:41:38.934Z,85.03
2018-12-25T05:42:38.885Z,85.30
2018-12-25T05:43:38.849Z,85.34
2018-12-25T05:44:38.839Z,85.13
2018-12-25T05:45:38.840Z,85.13
2018-12-25T05:46:38.978Z,85.44
2018-12-25T05:47:38.807Z,84.51
2018-12-25T05:48:38.798Z,84.41
2018-12-25T05:49:38.807Z,84.92
2018-12-25T05:50:46.417Z,84.72
2018-12-25T05:51:39.926Z,84.51
2018-12-25T05:52:38.747Z,84.61
2018-12-25T05:53:38.742Z,84.41
2018-12-25T05:54:38.726Z,84.20
2018-12-25T05:55:38.717Z,84.30
2018-12-25T05:56:38.708Z,84.09
2018-12-25T05:57:39.008Z,84.09
2018-12-25T05:58:38.774Z,84.20
2018-12-25T05:59:38.697Z,84.61
2018-12-25T06:00:39.982Z,84.41
2018-12-25T06:01:38.652Z,84.20
2018-12-25T06:02:38.638Z,84.30
2018-12-25T06:03:38.866Z,84.51
2018-12-25T06:04:38.616Z,83.99
2018-12-25T06:05:38.607Z,84.30
2018-12-25T06:06:38.597Z,84.09
2018-12-25T06:07:38.583Z,84.20
2018-12-25T06:08:38.573Z,83.99
2018-12-25T06:09:38.726Z,83.89
2018-12-25T06:10:38.551Z,83.58
2018-12-25T06:11:38.542Z,84.20
2018-12-25T06:12:38.564Z,83.78
2018-12-25T06:13:38.543Z,83.58
2018-12-25T06:14:38.698Z,83.47
2018-12-25T06:15:38.919Z,83.47
2018-12-25T06:16:38.485Z,83.58
2018-12-25T06:17:38.669Z,83.26
2018-12-25T06:18:38.469Z,83.37
2018-12-25T06:19:38.452Z,83.58
2018-12-25T06:20:38.438Z,83.68
2018-12-25T06:21:40.229Z,83.58
2018-12-25T06:22:38.418Z,83.47
2018-12-25T06:23:38.405Z,83.58
2018-12-25T06:24:38.394Z,83.26
2018-12-25T06:25:38.442Z,83.47
2018-12-25T06:26:38.378Z,82.95
2018-12-25T06:27:38.542Z,83.16
2018-12-25T06:28:38.359Z,83.06
2018-12-25T06:29:38.353Z,83.16
2018-12-25T06:30:38.364Z,83.06
2018-12-25T06:31:38.330Z,83.37
2018-12-25T06:32:38.375Z,83.51
2018-12-25T06:33:38.431Z,83.47
2018-12-25T06:34:38.322Z,83.26
2018-12-25T06:35:38.302Z,83.37
2018-12-25T06:36:38.267Z,83.58
2018-12-25T06:37:38.259Z,82.95
2018-12-25T06:38:38.247Z,82.95
2018-12-25T06:39:38.507Z,83.16
2018-12-25T06:40:38.218Z,83.16
2018-12-25T06:41:38.206Z,82.95
2018-12-25T06:42:39.258Z,82.95
2018-12-25T06:43:38.185Z,82.65
2018-12-25T06:44:38.213Z,82.54
2018-12-25T06:45:38.426Z,82.34
2018-12-25T06:46:38.152Z,82.34
2018-12-25T06:47:38.195Z,82.23
2018-12-25T06:48:38.188Z,82.50
2018-12-25T06:49:38.129Z,82.54
2018-12-25T06:50:38.108Z,82.34
2018-12-25T06:51:38.552Z,82.03
2018-12-25T06:52:38.100Z,82.54
2018-12-25T06:53:38.147Z,82.65
2018-12-25T06:54:39.435Z,82.65
2018-12-25T06:55:38.053Z,82.44
2018-12-25T06:56:38.039Z,82.13
2018-12-25T06:57:38.215Z,82.34
2018-12-25T06:58:38.058Z,82.44
2018-12-25T06:59:38.007Z,82.44
2018-12-25T07:00:37.997Z,82.65
2018-12-25T07:01:37.985Z,82.44
2018-12-25T07:02:37.973Z,82.44
2018-12-25T07:03:38.595Z,82.44
2018-12-25T07:04:38.018Z,82.75
2018-12-25T07:05:37.941Z,82.86
2018-12-25T07:06:37.931Z,82.34
2018-12-25T07:07:37.921Z,82.54
2018-12-25T07:08:37.908Z,82.65
2018-12-25T07:09:38.041Z,82.75
2018-12-25T07:10:38.019Z,82.95
2018-12-25T07:11:37.906Z,82.65
2018-12-25T07:12:37.865Z,82.95
2018-12-25T07:13:38.095Z,82.95
2018-12-25T07:14:38.038Z,83.16
2018-12-25T07:15:38.859Z,82.92
2018-12-25T07:16:37.820Z,82.86
2018-12-25T07:17:37.812Z,82.92
2018-12-25T07:18:37.798Z,82.95
2018-12-25T07:19:37.784Z,82.95
2018-12-25T07:20:38.316Z,83.58
2018-12-25T07:21:38.133Z,83.58
2018-12-25T07:22:37.755Z,83.68
2018-12-25T07:23:37.760Z,83.89
2018-12-25T07:24:37.959Z,83.89
2018-12-25T07:25:37.713Z,83.33
2018-12-25T07:26:37.711Z,83.68
2018-12-25T07:27:38.179Z,84.47
2018-12-25T07:28:37.687Z,84.78
2018-12-25T07:29:37.680Z,84.47
2018-12-25T07:30:37.662Z,84.68
2018-12-25T07:31:37.653Z,85.44
2018-12-25T07:32:37.644Z,84.92
2018-12-25T07:33:37.893Z,84.78
2018-12-25T07:34:37.681Z,84.92
2018-12-25T07:35:37.610Z,84.78
2018-12-25T07:36:37.594Z,85.34
2018-12-25T07:37:37.584Z,84.92
2018-12-25T07:38:37.662Z,85.03
2018-12-25T07:39:37.719Z,85.55
2018-12-25T07:40:37.551Z,85.44
2018-12-25T07:41:37.545Z,86.17
2018-12-25T07:42:37.526Z,86.33
2018-12-25T07:43:37.541Z,86.13
2018-12-25T07:44:37.519Z,86.33
2018-12-25T07:45:37.686Z,86.02
2018-12-25T07:46:37.485Z,85.19
2018-12-25T07:47:37.483Z,85.61
2018-12-25T07:48:37.466Z,86.23
2018-12-25T07:49:37.506Z,86.54
2018-12-25T07:50:37.445Z,86.23
2018-12-25T07:51:37.695Z,86.13
2018-12-25T07:52:37.425Z,86.33
2018-12-25T07:53:37.553Z,86.65
2018-12-25T07:54:37.402Z,85.61
2018-12-25T07:55:37.543Z,85.82
2018-12-25T07:56:37.392Z,86.85
2018-12-25T07:57:37.973Z,86.33
2018-12-25T07:58:37.395Z,86.33
2018-12-25T07:59:37.399Z,86.65
2018-12-25T08:00:37.393Z,86.65
2018-12-25T08:01:37.405Z,86.02
2018-12-25T08:02:37.432Z,86.54
2018-12-25T08:03:37.677Z,86.75
2018-12-25T08:04:37.287Z,86.23
2018-12-25T08:05:37.276Z,86.02
2018-12-25T08:06:37.267Z,85.61
2018-12-25T08:07:37.268Z,85.47
2018-12-25T08:08:37.287Z,85.50
2018-12-25T08:09:37.746Z,85.05
2018-12-25T08:10:37.380Z,84.99
2018-12-25T08:11:37.209Z,84.78
2018-12-25T08:12:37.199Z,85.09
2018-12-25T08:13:37.188Z,84.68
2018-12-25T08:14:37.183Z,85.05
2018-12-25T08:15:37.571Z,85.50
2018-12-25T08:16:37.156Z,84.99
2018-12-25T08:17:37.148Z,84.68
2018-12-25T08:18:37.132Z,85.09
2018-12-25T08:19:37.131Z,84.43
2018-12-25T08:20:37.113Z,84.74
2018-12-25T08:21:37.546Z,84.37
2018-12-25T08:22:37.094Z,84.22
2018-12-25T08:23:37.087Z,84.74
2018-12-25T08:24:37.107Z,84.33
2018-12-25T08:25:37.121Z,84.84
2018-12-25T08:26:37.086Z,84.64
2018-12-25T08:27:37.695Z,84.33
2018-12-25T08:28:37.419Z,84.22
2018-12-25T08:29:39.774Z,83.71
2018-12-25T08:30:37.035Z,83.50
2018-12-25T08:31:36.994Z,83.81
2018-12-25T08:32:36.982Z,83.50
2018-12-25T08:33:37.130Z,83.50
2018-12-25T08:34:36.966Z,83.71
2018-12-25T08:35:36.954Z,83.61
2018-12-25T08:36:36.945Z,83.61
2018-12-25T08:37:36.959Z,83.81
2018-12-25T08:38:40.375Z,83.71
2018-12-25T08:39:39.426Z,83.61
2018-12-25T08:40:36.926Z,82.98
2018-12-25T08:41:36.990Z,82.98
2018-12-25T08:42:37.264Z,83.50
2018-12-25T08:43:37.638Z,83.19
2018-12-25T08:44:36.975Z,83.40
2018-12-25T08:45:37.021Z,82.98
2018-12-25T08:46:36.850Z,82.78
2018-12-25T08:47:37.097Z,82.05
2018-12-25T08:48:37.070Z,82.05
2018-12-25T08:49:36.801Z,82.36
2018-12-25T08:50:36.856Z,82.57
2018-12-25T08:51:38.099Z,82.53
2018-12-25T08:52:36.762Z,82.32
2018-12-25T08:53:36.758Z,81.91
2018-12-25T08:54:37.196Z,82.22
2018-12-25T08:55:36.848Z,82.12
2018-12-25T08:56:36.744Z,82.01
2018-12-25T08:57:37.044Z,81.91
2018-12-25T08:58:36.699Z,82.12
2018-12-25T08:59:36.812Z,81.84
2018-12-25T09:00:36.677Z,81.91
2018-12-25T09:01:36.778Z,81.60
2018-12-25T09:02:36.655Z,81.49
2018-12-25T09:03:37.207Z,81.49
2018-12-25T09:04:36.635Z,81.49
2018-12-25T09:05:36.626Z,81.05
2018-12-25T09:06:37.174Z,81.19
2018-12-25T09:07:36.605Z,81.46
2018-12-25T09:08:36.594Z,81.19
2018-12-25T09:09:36.806Z,81.15
2018-12-25T09:10:36.610Z,80.84
2018-12-25T09:11:36.610Z,81.25
2018-12-25T09:12:36.608Z,81.25
2018-12-25T09:13:36.551Z,81.15
2018-12-25T09:14:36.768Z,80.94
2018-12-25T09:15:37.176Z,81.05
2018-12-25T09:16:36.678Z,81.25
2018-12-25T09:17:36.496Z,80.94
2018-12-25T09:18:36.647Z,80.94
2018-12-25T09:19:36.505Z,81.05
2018-12-25T09:20:36.509Z,80.22
2018-12-25T09:21:36.669Z,79.39
2018-12-25T09:22:36.460Z,79.60
2018-12-25T09:23:36.536Z,79.49
2018-12-25T09:24:36.427Z,79.97
2018-12-25T09:25:36.405Z,80.01
2018-12-25T09:26:36.424Z,79.25
2018-12-25T09:27:36.754Z,79.56
2018-12-25T09:28:36.373Z,79.39
2018-12-25T09:29:36.530Z,79.66
2018-12-25T09:30:36.640Z,79.46
2018-12-25T09:31:36.484Z,79.25
2018-12-25T09:32:36.790Z,79.29
2018-12-25T09:33:38.036Z,79.08
2018-12-25T09:34:36.365Z,78.77
2018-12-25T09:35:43.408Z,79.15
2018-12-25T09:36:36.283Z,79.05
2018-12-25T09:37:36.539Z,79.15
2018-12-25T09:38:36.542Z,79.05
2018-12-25T09:39:37.006Z,78.94
2018-12-25T09:40:36.938Z,78.53
2018-12-25T09:41:36.989Z,78.84
2018-12-25T09:42:36.294Z,78.32
2018-12-25T09:43:36.301Z,78.94
2018-12-25T09:44:36.239Z,79.46
2018-12-25T09:45:38.936Z,78.74
2018-12-25T09:46:36.177Z,78.84
2018-12-25T09:47:36.211Z,78.63
2018-12-25T09:48:36.506Z,79.05
2018-12-25T09:49:36.151Z,78.94
2018-12-25T09:50:36.266Z,78.80
2018-12-25T09:51:36.293Z,78.32
2018-12-25T09:52:36.145Z,78.49
2018-12-25T09:53:36.126Z,78.28
2018-12-25T09:54:50.793Z,78.49
2018-12-25T09:55:36.078Z,78.08
2018-12-25T09:56:36.080Z,78.39
2018-12-25T09:57:36.282Z,77.98
2018-12-25T09:58:36.046Z,77.98
2018-12-25T09:59:36.051Z,77.87
2018-12-25T10:00:37.315Z,77.98
2018-12-25T10:01:37.045Z,77.56
2018-12-25T10:02:36.014Z,77.36
2018-12-25T10:03:36.157Z,77.36
2018-12-25T10:04:35.993Z,77.87
2018-12-25T10:05:35.974Z,78.39
2018-12-25T10:06:35.973Z,78.28
2018-12-25T10:07:36.141Z,77.67
2018-12-25T10:08:36.026Z,77.98
2018-12-25T10:09:36.516Z,77.87
2018-12-25T10:10:35.918Z,78.18
2018-12-25T10:11:44.178Z,78.49
2018-12-25T10:12:36.895Z,78.28
2018-12-25T10:13:36.079Z,78.28
2018-12-25T10:14:35.897Z,78.08
2018-12-25T10:15:35.995Z,78.08
2018-12-25T10:16:36.234Z,77.77
2018-12-25T10:17:35.854Z,78.08
2018-12-25T10:18:35.891Z,77.73
2018-12-25T10:19:35.849Z,77.53
2018-12-25T10:20:37.611Z,77.28
2018-12-25T10:21:36.117Z,76.56
2018-12-25T10:22:35.823Z,76.77
2018-12-25T10:23:36.074Z,76.98
2018-12-25T10:24:35.801Z,75.95
2018-12-25T10:25:36.367Z,76.25
2018-12-25T10:26:35.777Z,76.15
2018-12-25T10:27:36.067Z,75.95
2018-12-25T10:28:35.715Z,76.98
2018-12-25T10:29:35.709Z,77.18
2018-12-25T10:30:35.693Z,77.08
2018-12-25T10:31:35.948Z,75.53
2018-12-25T10:32:36.027Z,76.15
2018-12-25T10:33:37.362Z,76.01
2018-12-25T10:34:35.648Z,75.32
2018-12-25T10:35:35.723Z,76.56
2018-12-25T10:36:36.259Z,76.56
2018-12-25T10:37:35.748Z,76.77
2018-12-25T10:38:35.611Z,76.25
2018-12-25T10:39:36.098Z,75.84
2018-12-25T10:40:35.607Z,76.35
2018-12-25T10:41:37.045Z,77.18
2018-12-25T10:42:35.561Z,75.95
2018-12-25T10:43:35.550Z,75.84
2018-12-25T10:44:35.561Z,76.90
2018-12-25T10:45:35.744Z,75.98
2018-12-25T10:46:35.525Z,77.01
2018-12-25T10:47:35.567Z,76.77
2018-12-25T10:48:35.607Z,76.81
2018-12-25T10:49:35.598Z,76.81
2018-12-25T10:50:35.564Z,76.90
2018-12-25T10:51:35.802Z,76.77
2018-12-25T10:52:35.564Z,76.81
2018-12-25T10:53:35.453Z,76.81
2018-12-25T10:55:40.303Z,76.12
2018-12-25T10:56:39.936Z,76.53
2018-12-25T10:57:39.930Z,75.22
2018-12-25T10:58:39.907Z,76.04
2018-12-25T10:59:43.045Z,76.98
2018-12-25T11:00:39.886Z,76.87
2018-12-25T11:01:40.262Z,76.67
2018-12-25T11:02:39.877Z,77.28
2018-12-25T11:03:39.877Z,75.18
2018-12-25T11:04:39.864Z,75.70
2018-12-25T11:05:39.876Z,76.35
2018-12-25T11:06:39.829Z,75.95
2018-12-25T11:07:40.245Z,76.15
2018-12-25T11:08:39.786Z,76.56
2018-12-25T11:09:39.843Z,76.04
2018-12-25T11:10:41.955Z,75.63
2018-12-25T11:11:39.751Z,75.49
2018-12-25T11:12:39.763Z,75.81
2018-12-25T11:13:40.126Z,75.60
2018-12-25T11:14:39.724Z,75.84
2018-12-25T11:15:39.747Z,75.63
2018-12-25T11:16:39.729Z,76.12
2018-12-25T11:17:39.793Z,76.15
2018-12-25T11:18:39.673Z,76.25
2018-12-25T11:19:39.964Z,76.56
2018-12-25T11:20:39.743Z,75.29
2018-12-25T11:21:39.748Z,76.01
2018-12-25T11:22:39.822Z,75.70
2018-12-25T11:23:39.654Z,75.91
2018-12-25T11:24:39.854Z,75.29
2018-12-25T11:25:39.912Z,74.88
2018-12-25T11:26:39.642Z,75.56
2018-12-25T11:27:39.576Z,75.56
2018-12-25T11:28:40.034Z,75.05
2018-12-25T11:29:39.584Z,75.32
2018-12-25T11:30:39.599Z,75.12
2018-12-25T11:31:42.092Z,73.13
2018-12-25T11:32:39.531Z,73.30
2018-12-25T11:33:39.533Z,72.78
2018-12-25T11:34:39.531Z,73.71
2018-12-25T11:35:39.599Z,73.23
2018-12-25T11:36:39.486Z,73.64
2018-12-25T11:37:40.184Z,74.40
2018-12-25T11:38:39.524Z,74.08
2018-12-25T11:39:39.727Z,74.08
2018-12-25T11:40:39.509Z,74.08
2018-12-25T11:41:39.789Z,74.29
2018-12-25T11:42:39.571Z,74.08
2018-12-25T11:43:40.249Z,74.74
2018-12-25T11:44:39.395Z,75.12
2018-12-25T11:45:39.415Z,75.15
2018-12-25T11:46:39.515Z,75.26
2018-12-25T11:47:39.522Z,75.26
2018-12-25T11:48:39.518Z,75.26
2018-12-25T11:49:40.021Z,75.26
2018-12-25T11:50:39.462Z,75.15
2018-12-25T11:51:39.364Z,75.36
2018-12-25T11:52:40.581Z,75.39
2018-12-25T11:53:39.307Z,75.77
2018-12-25T11:54:39.371Z,75.77
2018-12-25T11:55:39.758Z,75.46
2018-12-25T11:56:39.439Z,75.36
2018-12-25T11:57:39.282Z,75.87
2018-12-25T11:58:39.358Z,75.46
2018-12-25T11:59:39.243Z,75.77
2018-12-25T12:00:39.263Z,75.67
2018-12-25T12:01:39.451Z,75.53
2018-12-25T12:02:39.201Z,75.73
2018-12-25T12:03:39.236Z,75.22
2018-12-25T12:04:39.220Z,75.32
2018-12-25T12:05:39.167Z,75.36
2018-12-25T12:06:39.229Z,75.43
2018-12-25T12:07:39.340Z,74.84
2018-12-25T12:08:39.170Z,75.22
2018-12-25T12:09:39.155Z,75.01
2018-12-25T12:10:39.137Z,74.71
2018-12-25T12:11:39.122Z,74.91
2018-12-25T12:12:39.176Z,75.53
2018-12-25T12:13:40.895Z,75.77
2018-12-25T12:14:39.312Z,75.46
2018-12-25T12:15:39.119Z,75.46
2018-12-25T12:16:39.048Z,75.05
2018-12-25T12:17:39.044Z,75.53
2018-12-25T12:18:39.288Z,75.46
2018-12-25T12:19:40.385Z,75.32
2018-12-25T12:20:39.081Z,75.01
2018-12-25T12:21:38.993Z,74.91
2018-12-25T12:22:38.999Z,74.60
2018-12-25T12:23:38.981Z,74.60
2018-12-25T12:24:38.980Z,75.32
2018-12-25T12:25:40.718Z,75.53
2018-12-25T12:26:39.148Z,75.01
2018-12-25T12:27:38.933Z,75.63
2018-12-25T12:28:38.950Z,75.32
2018-12-25T12:29:38.917Z,75.15
2018-12-25T12:30:39.285Z,75.53
2018-12-25T12:31:39.237Z,75.63
2018-12-25T12:32:38.909Z,75.46
2018-12-25T12:33:38.871Z,75.43
2018-12-25T12:34:39.690Z,75.77
2018-12-25T12:35:38.845Z,75.56
2018-12-25T12:36:38.856Z,75.77
2018-12-25T12:37:39.002Z,75.67
2018-12-25T12:38:38.813Z,75.46
2018-12-25T12:39:39.055Z,75.77
2018-12-25T12:40:40.513Z,75.77
2018-12-25T12:41:38.773Z,75.77
2018-12-25T12:42:38.759Z,75.67
2018-12-25T12:43:39.005Z,75.77
2018-12-25T12:44:38.744Z,75.67
2018-12-25T12:45:38.816Z,75.15
2018-12-25T12:46:38.721Z,75.67
2018-12-25T12:47:38.850Z,75.67
2018-12-25T12:48:38.702Z,75.77
2018-12-25T12:49:39.198Z,75.77
2018-12-25T12:50:38.676Z,75.77
2018-12-25T12:51:38.669Z,75.46
2018-12-25T12:52:45.562Z,75.56
2018-12-25T12:53:39.642Z,75.15